^^
Your Local Weather - Clay, NY Station Historical Data
Daily Summary for April 29, 2017 Units:  English    Metric   Both
« Previous Day
Next Day »
Daily Weekly Monthly Yearly Custom
  High: Low: Average:
Temperature: 59.5 °F 44.7 °F 55.5 °F
Dew Point: 53.2 °F 33.7 °F 44.8 °F
Humidity: 82% 51% 68%
Wind Speed: 5.0mph 0.0mph 1.1mph
Wind Gust: 6.0mph - -
Wind- - WNW
Pressure: 30.21 in 29.90 in -
Precipitation: 0.00 in    
Historical Graphs
 
 
Tabular Data for April 29, 2017
Time Temperature Dew Point Pressure Wind Wind Speed Wind Gust Humidity Rainfall Rate (Hourly) solar
00:00 56.9 °F 49.8 °F 29.94 in Calm     77% 0.00 in 0 W/m2
00:06 56.7 °F 49.2 °F 29.94 in Calm     76% 0.00 in 0 W/m2
00:12 56.8 °F 49.0 °F 29.95 in Calm     75% 0.00 in 0 W/m2
00:18 56.9 °F 49.4 °F 29.95 in Calm     76% 0.00 in 0 W/m2
00:26 56.9 °F 49.4 °F 29.95 in Calm     76% 0.00 in 0 W/m2
00:32 57.0 °F 49.9 °F 29.94 in Calm     77% 0.00 in 0 W/m2
00:38 56.9 °F 50.5 °F 29.95 in Calm     79% 0.00 in 0 W/m2
00:50 56.7 °F 50.3 °F 29.95 in Calm     79% 0.00 in 0 W/m2
00:56 56.6 °F 49.8 °F 29.94 in Calm     78% 0.00 in 0 W/m2
01:02 56.7 °F 50.6 °F 29.94 in Calm     80% 0.00 in 0 W/m2
01:08 56.7 °F 50.9 °F 29.94 in Calm     81% 0.00 in 0 W/m2
01:13 56.5 °F 50.4 °F 29.94 in Calm     80% 0.00 in 0 W/m2
01:20 56.5 °F 50.7 °F 29.93 in Calm     81% 0.00 in 0 W/m2
01:25 56.6 °F 50.8 °F 29.93 in Calm     81% 0.00 in 0 W/m2
01:32 56.6 °F 50.8 °F 29.93 in Calm     81% 0.00 in 0 W/m2
01:38 56.7 °F 50.9 °F 29.92 in Calm     81% 0.00 in 0 W/m2
01:45 56.7 °F 51.3 °F 29.92 in Calm     82% 0.00 in 0 W/m2
01:52 56.8 °F 51.4 °F 29.92 in Calm     82% 0.00 in 0 W/m2
01:58 56.8 °F 51.0 °F 29.92 in Calm     81% 0.00 in 0 W/m2
02:04 56.7 °F 51.3 °F 29.92 in Calm     82% 0.00 in 0 W/m2
02:10 56.8 °F 51.0 °F 29.92 in Calm     81% 0.00 in 0 W/m2
02:16 56.9 °F 51.1 °F 29.93 in Calm     81% 0.00 in 0 W/m2
02:22 57.1 °F 51.3 °F 29.93 in Calm     81% 0.00 in 0 W/m2
02:28 57.2 °F 51.1 °F 29.93 in Calm     80% 0.00 in 0 W/m2
02:33 57.3 °F 51.2 °F 29.93 in Calm     80% 0.00 in 0 W/m2
02:40 57.4 °F 50.9 °F 29.92 in Calm     79% 0.00 in 0 W/m2
02:45 57.8 °F 52.3 °F 29.92 in Calm     82% 0.00 in 0 W/m2
02:52 57.8 °F 52.0 °F 29.92 in Calm     81% 0.00 in 0 W/m2
02:58 58.0 °F 51.5 °F 29.92 in Calm     79% 0.00 in 0 W/m2
03:04 58.3 °F 51.8 °F 29.91 in Calm     79% 0.00 in 0 W/m2
03:10 58.2 °F 50.7 °F 29.92 in Calm     76% 0.00 in 0 W/m2
03:16 58.6 °F 51.4 °F 29.92 in Calm     77% 0.00 in 0 W/m2
03:22 58.8 °F 51.6 °F 29.92 in Calm     77% 0.00 in 0 W/m2
03:28 58.8 °F 51.6 °F 29.92 in Calm     77% 0.00 in 0 W/m2
03:34 58.9 °F 52.1 °F 29.92 in Calm   2.0 mph 78% 0.00 in 0 W/m2
03:40 59.0 °F 52.5 °F 29.91 in Calm     79% 0.00 in 0 W/m2
03:46 59.0 °F 53.2 °F 29.90 in Calm     81% 0.00 in 0 W/m2
03:52 58.7 °F 52.5 °F 29.90 in Calm     80% 0.00 in 0 W/m2
03:58 58.6 °F 52.4 °F 29.91 in Calm     80% 0.00 in 0 W/m2
04:04 58.5 °F 51.7 °F 29.90 in Calm     78% 0.00 in 0 W/m2
04:10 58.5 °F 52.0 °F 29.90 in Calm     79% 0.00 in 0 W/m2
04:15 58.6 °F 52.1 °F 29.90 in Calm     79% 0.00 in 0 W/m2
04:22 58.5 °F 51.7 °F 29.91 in Calm     78% 0.00 in 0 W/m2
04:28 58.5 °F 51.3 °F 29.91 in Calm     77% 0.00 in 0 W/m2
04:34 58.6 °F 51.8 °F 29.90 in Calm     78% 0.00 in 0 W/m2
04:40 58.6 °F 51.4 °F 29.91 in Calm     77% 0.00 in 0 W/m2
04:46 58.8 °F 51.6 °F 29.91 in Calm     77% 0.00 in 0 W/m2
04:52 58.9 °F 52.1 °F 29.92 in Calm     78% 0.00 in 0 W/m2
04:58 58.9 °F 51.7 °F 29.92 in Calm     77% 0.00 in 0 W/m2
05:04 59.0 °F 52.1 °F 29.92 in Calm     78% 0.00 in 0 W/m2
05:10 59.1 °F 52.6 °F 29.92 in Calm     79% 0.00 in 0 W/m2
05:15 59.1 °F 52.2 °F 29.92 in Calm     78% 0.00 in 0 W/m2
05:22 59.2 °F 52.7 °F 29.92 in Calm     79% 0.00 in 0 W/m2
05:28 59.2 °F 52.7 °F 29.92 in Calm     79% 0.00 in 0 W/m2
05:34 59.1 °F 52.2 °F 29.92 in Calm     78% 0.00 in 0 W/m2
05:40 59.1 °F 52.6 °F 29.92 in Calm     79% 0.00 in 0 W/m2
05:46 59.0 °F 52.1 °F 29.92 in Calm     78% 0.00 in 0 W/m2
05:52 59.0 °F 52.1 °F 29.92 in Calm     78% 0.00 in 0 W/m2
05:58 58.9 °F 52.1 °F 29.92 in Calm     78% 0.00 in 0 W/m2
06:04 58.9 °F 52.4 °F 29.92 in Calm   1.0 mph 79% 0.00 in 0 W/m2
06:10 58.8 °F 52.0 °F 29.92 in Calm   2.0 mph 78% 0.00 in 0 W/m2
06:14 58.9 °F 51.3 °F 29.92 in NNW 1.0 mph 2.0 mph 76% 0.00 in 0 W/m2
06:20 59.1 °F 50.8 °F 29.92 in NNW 1.0 mph 1.0 mph 74% 0.00 in 5 W/m2
06:25 59.3 °F 50.3 °F 29.92 in Calm   1.0 mph 72% 0.00 in 5 W/m2
06:32 59.4 °F 50.4 °F 29.93 in Calm     72% 0.00 in 5 W/m2
06:38 59.5 °F 50.1 °F 29.93 in Calm     71% 0.00 in 0 W/m2
06:44 59.5 °F 50.5 °F 29.93 in Calm     72% 0.00 in 7 W/m2
06:50 59.5 °F 50.8 °F 29.93 in Calm     73% 0.00 in 11 W/m2
06:56 59.4 °F 51.1 °F 29.93 in Calm     74% 0.00 in 14 W/m2
07:02 59.3 °F 51.7 °F 29.93 in Calm     76% 0.00 in 18 W/m2
07:08 59.2 °F 52.0 °F 29.94 in Calm   1.0 mph 77% 0.00 in 21 W/m2
07:14 59.2 °F 51.3 °F 29.95 in NW 1.0 mph 5.0 mph 75% 0.00 in 26 W/m2
07:20 59.3 °F 50.6 °F 29.95 in NW 2.0 mph 3.0 mph 73% 0.00 in 25 W/m2
07:26 59.1 °F 50.1 °F 29.95 in NW 3.0 mph 4.0 mph 72% 0.00 in 18 W/m2
07:32 58.8 °F 49.8 °F 29.95 in NNW 3.0 mph 5.0 mph 72% 0.00 in 44 W/m2
07:38 58.4 °F 48.7 °F 29.94 in North 4.0 mph 6.0 mph 70% 0.00 in 42 W/m2
07:44 57.9 °F 48.6 °F 29.95 in North 5.0 mph 5.0 mph 71% 0.00 in 30 W/m2
07:50 57.4 °F 47.7 °F 29.96 in North 5.0 mph 5.0 mph 70% 0.00 in 40 W/m2
07:56 57.1 °F 47.8 °F 29.97 in NW 3.0 mph 5.0 mph 71% 0.00 in 37 W/m2
08:02 56.9 °F 48.3 °F 29.97 in NW 2.0 mph 2.0 mph 73% 0.00 in 39 W/m2
08:08 56.8 °F 47.9 °F 29.98 in NW 1.0 mph 3.0 mph 72% 0.00 in 49 W/m2
08:14 56.7 °F 47.8 °F 29.98 in NW 1.0 mph 1.0 mph 72% 0.00 in 54 W/m2
08:20 56.5 °F 47.9 °F 29.98 in WNW 1.0 mph 1.0 mph 73% 0.00 in 51 W/m2
08:26 56.4 °F 47.9 °F 29.98 in NW 2.0 mph 3.0 mph 73% 0.00 in 58 W/m2
08:32 56.3 °F 47.8 °F 29.98 in NW 1.0 mph 2.0 mph 73% 0.00 in 58 W/m2
08:38 56.3 °F 47.8 °F 29.99 in NW 1.0 mph 2.0 mph 73% 0.00 in 77 W/m2
08:46 56.6 °F 48.0 °F 29.98 in NW 1.0 mph 3.0 mph 73% 0.00 in 113 W/m2
08:52 56.9 °F 48.3 °F 29.99 in Calm   4.0 mph 73% 0.00 in 88 W/m2
08:58 57.1 °F 47.8 °F 29.99 in SSW 1.0 mph 4.0 mph 71% 0.00 in 88 W/m2
09:04 57.3 °F 48.0 °F 29.99 in NW 1.0 mph 3.0 mph 71% 0.00 in 142 W/m2
09:09 57.5 °F 48.2 °F 29.99 in WSW 1.0 mph 1.0 mph 71% 0.00 in 162 W/m2
09:16 57.8 °F 48.1 °F 29.99 in NW 1.0 mph 3.0 mph 70% 0.00 in 172 W/m2
09:22 58.1 °F 48.4 °F 30.00 in SSW 1.0 mph 1.0 mph 70% 0.00 in 165 W/m2
09:28 58.2 °F 47.7 °F 30.00 in WNW 1.0 mph 4.0 mph 68% 0.00 in 162 W/m2
09:34 58.2 °F 48.1 °F 30.00 in NW 1.0 mph 2.0 mph 69% 0.00 in 156 W/m2
09:40 58.2 °F 47.7 °F 30.00 in WSW 1.0 mph 1.0 mph 68% 0.00 in 146 W/m2
09:46 58.3 °F 47.8 °F 30.00 in NNW 1.0 mph 2.0 mph 68% 0.00 in 102 W/m2
09:52 58.3 °F 47.8 °F 30.01 in NNW 1.0 mph 1.0 mph 68% 0.00 in 84 W/m2
09:58 58.2 °F 47.7 °F 30.00 in NNW 1.0 mph 2.0 mph 68% 0.00 in 135 W/m2
10:04 58.3 °F 47.8 °F 30.00 in NW 1.0 mph 2.0 mph 68% 0.00 in 156 W/m2
10:10 58.5 °F 48.4 °F 30.01 in NW 1.0 mph 3.0 mph 69% 0.00 in 176 W/m2
10:16 58.5 °F 48.0 °F 30.01 in WSW 1.0 mph 3.0 mph 68% 0.00 in 134 W/m2
10:22 58.6 °F 48.5 °F 30.01 in West 1.0 mph 1.0 mph 69% 0.00 in 132 W/m2
10:28 58.5 °F 48.0 °F 30.01 in WNW 1.0 mph 1.0 mph 68% 0.00 in 93 W/m2
10:34 58.5 °F 48.4 °F 30.01 in WNW 1.0 mph 1.0 mph 69% 0.00 in 132 W/m2
10:40 58.4 °F 48.3 °F 30.01 in West 1.0 mph 2.0 mph 69% 0.00 in 199 W/m2
10:46 58.5 °F 48.0 °F 30.02 in NW 3.0 mph 3.0 mph 68% 0.00 in 167 W/m2
10:52 58.5 °F 48.4 °F 30.01 in West 3.0 mph 3.0 mph 69% 0.00 in 169 W/m2
10:58 58.4 °F 47.9 °F 30.01 in West 2.0 mph 3.0 mph 68% 0.00 in 248 W/m2
11:06 58.6 °F 48.5 °F 30.02 in WSW 2.0 mph 2.0 mph 69% 0.00 in 141 W/m2
11:12 58.3 °F 47.8 °F 30.03 in WNW 2.0 mph 3.0 mph 68% 0.00 in 98 W/m2
11:18 58.0 °F 47.5 °F 30.03 in WNW 2.0 mph 4.0 mph 68% 0.00 in 118 W/m2
11:24 58.0 °F 47.1 °F 30.03 in NW 2.0 mph 3.0 mph 67% 0.00 in 144 W/m2
11:29 58.1 °F 47.6 °F 30.02 in NW 2.0 mph 2.0 mph 68% 0.00 in 127 W/m2
11:36 58.2 °F 47.3 °F 30.02 in WSW 1.0 mph 4.0 mph 67% 0.00 in 151 W/m2
11:42 58.4 °F 47.5 °F 30.02 in WSW 1.0 mph 2.0 mph 67% 0.00 in 160 W/m2
11:48 58.4 °F 47.5 °F 30.02 in SW 2.0 mph 2.0 mph 67% 0.00 in 118 W/m2
11:54 58.4 °F 47.9 °F 30.02 in NW 2.0 mph 3.0 mph 68% 0.00 in 132 W/m2
12:00 58.5 °F 47.6 °F 30.02 in West 1.0 mph 4.0 mph 67% 0.00 in 153 W/m2
12:06 58.4 °F 47.5 °F 30.02 in WNW 1.0 mph 4.0 mph 67% 0.00 in 179 W/m2
12:12 58.4 °F 47.5 °F 30.02 in West 1.0 mph 3.0 mph 67% 0.00 in 193 W/m2
12:18 58.5 °F 47.6 °F 30.01 in West 1.0 mph 3.0 mph 67% 0.00 in 237 W/m2
12:24 58.7 °F 48.6 °F 30.01 in NW 1.0 mph 4.0 mph 69% 0.00 in 230 W/m2
12:30 58.5 °F 48.0 °F 30.01 in NNW 2.0 mph 2.0 mph 68% 0.00 in 193 W/m2
12:36 58.4 °F 47.5 °F 30.01 in NNW 1.0 mph 2.0 mph 67% 0.00 in 209 W/m2
12:40 58.4 °F 47.1 °F 30.01 in West 1.0 mph 2.0 mph 66% 0.00 in 174 W/m2
12:46 58.2 °F 46.9 °F 30.00 in WNW 2.0 mph 2.0 mph 66% 0.00 in 241 W/m2
12:52 58.1 °F 46.8 °F 30.01 in WSW 1.0 mph 1.0 mph 66% 0.00 in 195 W/m2
12:58 58.1 °F 46.8 °F 30.01 in NW 2.0 mph 2.0 mph 66% 0.00 in 181 W/m2
13:04 58.1 °F 46.8 °F 30.00 in WNW 2.0 mph 2.0 mph 66% 0.00 in 197 W/m2
13:10 58.3 °F 47.4 °F 30.00 in WNW 1.0 mph 1.0 mph 67% 0.00 in 195 W/m2
13:16 58.5 °F 47.6 °F 30.00 in WNW 1.0 mph 2.0 mph 67% 0.00 in 230 W/m2
13:22 58.8 °F 47.9 °F 30.00 in NW 1.0 mph 2.0 mph 67% 0.00 in 255 W/m2
13:28 58.8 °F 47.1 °F 30.00 in NW 1.0 mph 3.0 mph 65% 0.00 in 244 W/m2
13:34 58.8 °F 47.5 °F 30.00 in WNW 2.0 mph 2.0 mph 66% 0.00 in 265 W/m2
13:40 59.0 °F 47.7 °F 30.01 in NW 2.0 mph 3.0 mph 66% 0.00 in 271 W/m2
13:46 59.1 °F 47.7 °F 30.01 in WNW 3.0 mph 5.0 mph 66% 0.00 in 295 W/m2
13:52 59.0 °F 47.7 °F 30.01 in WNW 3.0 mph 3.0 mph 66% 0.00 in 311 W/m2
13:58 58.8 °F 47.5 °F 30.02 in NNW 3.0 mph 5.0 mph 66% 0.00 in 251 W/m2
14:04 58.4 °F 46.7 °F 30.03 in WNW 3.0 mph 3.0 mph 65% 0.00 in 230 W/m2
14:10 57.7 °F 46.0 °F 30.03 in NW 3.0 mph 3.0 mph 65% 0.00 in 221 W/m2
14:16 57.5 °F 45.8 °F 30.03 in NNW 3.0 mph 4.0 mph 65% 0.00 in 258 W/m2
14:22 56.7 °F 45.1 °F 30.04 in WNW 4.0 mph 4.0 mph 65% 0.00 in 287 W/m2
14:28 56.3 °F 44.7 °F 30.05 in WNW 5.0 mph 5.0 mph 65% 0.00 in 274 W/m2
14:34 55.9 °F 43.5 °F 30.06 in NW 4.0 mph 4.0 mph 63% 0.00 in 244 W/m2
14:40 55.7 °F 43.3 °F 30.06 in NNW 4.0 mph 5.0 mph 63% 0.00 in 236 W/m2
14:46 55.6 °F 43.2 °F 30.07 in WNW 3.0 mph 5.0 mph 63% 0.00 in 193 W/m2
14:52 55.2 °F 42.0 °F 30.08 in West 3.0 mph 6.0 mph 61% 0.00 in 155 W/m2
14:58 54.9 °F 41.7 °F 30.08 in West 4.0 mph 6.0 mph 61% 0.00 in 141 W/m2
15:04 55.1 °F 42.3 °F 30.08 in West 2.0 mph 3.0 mph 62% 0.00 in 141 W/m2
15:10 55.3 °F 42.1 °F 30.09 in WSW 2.0 mph 2.0 mph 61% 0.00 in 132 W/m2
15:16 55.3 °F 41.2 °F 30.08 in West 3.0 mph 3.0 mph 59% 0.00 in 127 W/m2
15:22 55.3 °F 41.6 °F 30.08 in NW 2.0 mph 3.0 mph 60% 0.00 in 127 W/m2
15:28 55.5 °F 41.8 °F 30.08 in WSW 2.0 mph 4.0 mph 60% 0.00 in 130 W/m2
15:34 55.7 °F 42.0 °F 30.08 in WNW 3.0 mph 6.0 mph 60% 0.00 in 120 W/m2
15:40 55.9 °F 42.2 °F 30.08 in West 3.0 mph 6.0 mph 60% 0.00 in 88 W/m2
15:46 55.9 °F 42.2 °F 30.09 in West 3.0 mph 6.0 mph 60% 0.00 in 60 W/m2
15:52 55.9 °F 42.6 °F 30.09 in WNW 2.0 mph 3.0 mph 61% 0.00 in 56 W/m2
15:58 55.9 °F 42.2 °F 30.09 in NNW 2.0 mph 5.0 mph 60% 0.00 in 56 W/m2
16:04 55.9 °F 42.2 °F 30.09 in WSW 2.0 mph 3.0 mph 60% 0.00 in 54 W/m2
16:10 56.0 °F 43.2 °F 30.09 in West 2.0 mph 2.0 mph 62% 0.00 in 56 W/m2
16:16 56.0 °F 42.3 °F 30.09 in WNW 1.0 mph 2.0 mph 60% 0.00 in 63 W/m2
16:22 56.0 °F 42.7 °F 30.09 in WNW 2.0 mph 2.0 mph 61% 0.00 in 70 W/m2
16:28 56.1 °F 43.3 °F 30.09 in NW 2.0 mph 2.0 mph 62% 0.00 in 72 W/m2
16:34 55.7 °F 42.0 °F 30.09 in NW 2.0 mph 3.0 mph 60% 0.00 in 76 W/m2
16:40 55.2 °F 42.0 °F 30.09 in NNW 2.0 mph 2.0 mph 61% 0.00 in 69 W/m2
16:46 54.9 °F 41.3 °F 30.09 in WNW 2.0 mph 4.0 mph 60% 0.00 in 54 W/m2
16:58 54.2 °F 41.5 °F 30.08 in NNW 3.0 mph 5.0 mph 62% 0.00 in 58 W/m2
17:04 53.8 °F 41.5 °F 30.08 in NNW 3.0 mph 4.0 mph 63% 0.00 in 84 W/m2
17:10 53.2 °F 40.1 °F 30.08 in NNW 4.0 mph 5.0 mph 61% 0.00 in 100 W/m2
17:15 52.8 °F 40.1 °F 30.08 in NNW 4.0 mph 6.0 mph 62% 0.00 in 76 W/m2
17:22 52.6 °F 39.9 °F 30.08 in WNW 3.0 mph 3.0 mph 62% 0.00 in 67 W/m2
17:28 52.5 °F 40.3 °F 30.08 in NW 2.0 mph 3.0 mph 63% 0.00 in 65 W/m2
17:34 52.5 °F 40.7 °F 30.08 in NW 2.0 mph 2.0 mph 64% 0.00 in 81 W/m2
17:40 52.6 °F 39.9 °F 30.08 in NW 2.0 mph 2.0 mph 62% 0.00 in 93 W/m2
17:46 52.8 °F 40.5 °F 30.08 in NNW 2.0 mph 2.0 mph 63% 0.00 in 104 W/m2
17:52 53.0 °F 39.9 °F 30.08 in NW 2.0 mph 4.0 mph 61% 0.00 in 86 W/m2
17:58 53.0 °F 39.9 °F 30.08 in NW 1.0 mph 4.0 mph 61% 0.00 in 60 W/m2
18:04 53.0 °F 39.9 °F 30.08 in WNW 1.0 mph 2.0 mph 61% 0.00 in 60 W/m2
18:09 52.9 °F 38.5 °F 30.08 in West 2.0 mph 2.0 mph 58% 0.00 in 44 W/m2
18:16 52.8 °F 38.4 °F 30.08 in WSW 2.0 mph 3.0 mph 58% 0.00 in 28 W/m2
18:22 52.5 °F 37.2 °F 30.09 in West 2.0 mph 4.0 mph 56% 0.00 in 25 W/m2
18:28 52.3 °F 36.6 °F 30.09 in WNW 2.0 mph 4.0 mph 55% 0.00 in 25 W/m2
18:34 52.2 °F 36.0 °F 30.09 in NW 2.0 mph 3.0 mph 54% 0.00 in 25 W/m2
18:39 52.1 °F 35.5 °F 30.09 in WNW 2.0 mph 3.0 mph 53% 0.00 in 25 W/m2
18:46 52.1 °F 35.9 °F 30.09 in WNW 2.0 mph 3.0 mph 54% 0.00 in 30 W/m2
18:52 52.2 °F 35.1 °F 30.09 in NW 2.0 mph 3.0 mph 52% 0.00 in 37 W/m2
18:58 52.2 °F 34.6 °F 30.09 in WNW 3.0 mph 3.0 mph 51% 0.00 in 35 W/m2
19:04 52.2 °F 36.0 °F 30.10 in WNW 3.0 mph 4.0 mph 54% 0.00 in 28 W/m2
19:10 52.1 °F 34.5 °F 30.10 in NW 3.0 mph 6.0 mph 51% 0.00 in 18 W/m2
19:16 52.1 °F 34.5 °F 30.10 in WNW 3.0 mph 6.0 mph 51% 0.00 in 18 W/m2
19:22 52.0 °F 34.4 °F 30.10 in West 3.0 mph 4.0 mph 51% 0.00 in 18 W/m2
19:28 51.9 °F 35.3 °F 30.11 in NW 2.0 mph 4.0 mph 53% 0.00 in 11 W/m2
19:34 51.8 °F 34.7 °F 30.11 in WNW 3.0 mph 4.0 mph 52% 0.00 in 9 W/m2
19:40 51.8 °F 34.7 °F 30.11 in WNW 3.0 mph 3.0 mph 52% 0.00 in 9 W/m2
19:46 51.7 °F 35.1 °F 30.12 in WSW 2.0 mph 3.0 mph 53% 0.00 in 7 W/m2
19:52 51.7 °F 35.1 °F 30.12 in NW 1.0 mph 2.0 mph 53% 0.00 in 5 W/m2
19:58 51.6 °F 35.0 °F 30.13 in WSW 1.0 mph 2.0 mph 53% 0.00 in 0 W/m2
20:04 51.7 °F 35.1 °F 30.13 in Calm   1.0 mph 53% 0.00 in 0 W/m2
20:10 51.7 °F 35.1 °F 30.13 in NW 1.0 mph 1.0 mph 53% 0.00 in 0 W/m2
20:16 51.6 °F 35.0 °F 30.13 in WNW 1.0 mph 1.0 mph 53% 0.00 in 0 W/m2
20:22 51.6 °F 34.5 °F 30.13 in WNW 1.0 mph 1.0 mph 52% 0.00 in 0 W/m2
20:28 51.6 °F 34.5 °F 30.13 in West 1.0 mph 2.0 mph 52% 0.00 in 0 W/m2
20:34 51.5 °F 34.9 °F 30.14 in West 1.0 mph 1.0 mph 53% 0.00 in 0 W/m2
20:40 51.4 °F 35.3 °F 30.14 in Calm     54% 0.00 in 0 W/m2
20:46 51.1 °F 35.5 °F 30.14 in WNW 1.0 mph 1.0 mph 55% 0.00 in 0 W/m2
20:52 50.6 °F 35.5 °F 30.15 in WNW 1.0 mph 1.0 mph 56% 0.00 in 0 W/m2
20:58 50.2 °F 34.6 °F 30.16 in Calm   1.0 mph 55% 0.00 in 0 W/m2
21:04 49.9 °F 34.8 °F 30.17 in WNW 1.0 mph 2.0 mph 56% 0.00 in 0 W/m2
21:10 49.7 °F 35.1 °F 30.17 in Calm     57% 0.00 in 0 W/m2
21:16 49.7 °F 34.2 °F 30.17 in WNW 1.0 mph 1.0 mph 55% 0.00 in 0 W/m2
21:22 49.7 °F 34.6 °F 30.17 in WNW 1.0 mph 1.0 mph 56% 0.00 in 0 W/m2
21:34 49.2 °F 34.2 °F 30.17 in Calm   1.0 mph 56% 0.00 in 0 W/m2
21:40 49.0 °F 34.4 °F 30.17 in Calm     57% 0.00 in 0 W/m2
21:45 48.8 °F 34.2 °F 30.17 in Calm     57% 0.00 in 0 W/m2
21:52 48.8 °F 34.7 °F 30.17 in Calm     58% 0.00 in 0 W/m2
21:58 48.5 °F 34.4 °F 30.17 in Calm     58% 0.00 in 0 W/m2
22:04 48.1 °F 34.4 °F 30.17 in Calm     59% 0.00 in 0 W/m2
22:10 47.6 °F 34.8 °F 30.17 in Calm     61% 0.00 in 0 W/m2
22:16 47.1 °F 33.9 °F 30.16 in Calm     60% 0.00 in 0 W/m2
22:22 46.7 °F 34.0 °F 30.17 in Calm     61% 0.00 in 0 W/m2
22:28 46.6 °F 34.7 °F 30.18 in Calm     63% 0.00 in 0 W/m2
22:34 46.4 °F 34.1 °F 30.18 in Calm     62% 0.00 in 0 W/m2
22:40 46.3 °F 34.0 °F 30.19 in Calm     62% 0.00 in 0 W/m2
22:46 46.1 °F 35.0 °F 30.20 in Calm     65% 0.00 in 0 W/m2
22:52 45.6 °F 34.5 °F 30.21 in Calm     65% 0.00 in 0 W/m2
22:58 45.3 °F 34.2 °F 30.20 in Calm     65% 0.00 in 0 W/m2
23:04 45.2 °F 34.5 °F 30.20 in Calm     66% 0.00 in 0 W/m2
23:10 45.1 °F 34.4 °F 30.20 in Calm     66% 0.00 in 0 W/m2
23:15 45.0 °F 34.3 °F 30.20 in Calm     66% 0.00 in 0 W/m2
23:22 44.8 °F 34.5 °F 30.20 in Calm     67% 0.00 in 0 W/m2
23:28 44.7 °F 34.4 °F 30.20 in Calm     67% 0.00 in 0 W/m2
23:34 44.7 °F 34.0 °F 30.21 in Calm   1.0 mph 66% 0.00 in 0 W/m2
23:39 44.8 °F 33.7 °F 30.20 in Calm     65% 0.00 in 0 W/m2
23:46 45.3 °F 33.8 °F 30.20 in Calm   1.0 mph 64% 0.00 in 0 W/m2
23:52 45.4 °F 33.9 °F 30.21 in Calm   1.0 mph 64% 0.00 in 0 W/m2
23:58 45.6 °F 33.7 °F 30.21 in Calm   1.0 mph 63% 0.00 in 0 W/m2
Country Meadow, Clay, NY, USA
Compliments of Weather Underground - 2 mb